createdAt,value
2022-11-03T00:01:46.052Z,100638.09
2022-11-03T00:04:14.243Z,100624.97
2022-11-03T00:06:41.774Z,100624.19
2022-11-03T00:09:11.979Z,100618.88
2022-11-03T00:11:39.869Z,100618.84
2022-11-03T00:14:07.322Z,100617.75
2022-11-03T00:16:34.002Z,100618.00
2022-11-03T00:19:01.092Z,100613.72
2022-11-03T00:21:28.156Z,100599.66
2022-11-03T00:23:54.727Z,100596.97
2022-11-03T00:26:22.313Z,100600.31
2022-11-03T00:28:51.183Z,100610.03
2022-11-03T00:31:23.729Z,100608.28
2022-11-03T00:33:50.607Z,100604.00
2022-11-03T00:36:22.967Z,100597.84
2022-11-03T00:38:49.550Z,100604.06
2022-11-03T00:41:17.093Z,100607.53
2022-11-03T00:43:43.864Z,100597.91
2022-11-03T00:46:10.732Z,100597.06
2022-11-03T00:48:37.486Z,100598.00
2022-11-03T00:51:11.356Z,100594.47
2022-11-03T00:53:40.065Z,100592.72
2022-11-03T00:56:09.578Z,100589.06
2022-11-03T00:58:36.213Z,100584.72
2022-11-03T01:01:25.518Z,100579.47
2022-11-03T01:04:13.255Z,100578.56
2022-11-03T01:06:51.780Z,100585.63
2022-11-03T01:09:18.085Z,100585.59
2022-11-03T01:11:53.523Z,100592.59
2022-11-03T01:14:19.931Z,100582.97
2022-11-03T01:16:46.283Z,100579.53
2022-11-03T01:19:12.687Z,100578.69
2022-11-03T01:21:39.022Z,100567.34
2022-11-03T01:24:05.617Z,100562.19
2022-11-03T01:26:32.262Z,100559.47
2022-11-03T01:29:00.195Z,100552.34
2022-11-03T01:31:27.906Z,100554.00
2022-11-03T01:33:55.979Z,100556.72
2022-11-03T01:36:22.832Z,100552.34
2022-11-03T01:38:49.195Z,100554.91
2022-11-03T01:41:21.904Z,100547.91
2022-11-03T01:44:07.443Z,100529.41
2022-11-03T01:46:48.696Z,100532.06
2022-11-03T01:49:22.053Z,100527.72
2022-11-03T01:51:55.634Z,100529.38
2022-11-03T01:54:26.241Z,100526.81
2022-11-03T01:56:53.674Z,100532.16
2022-11-03T01:59:23.888Z,100524.13
2022-11-03T02:01:50.609Z,100527.63
2022-11-03T02:04:26.459Z,100522.50
2022-11-03T02:06:59.572Z,100522.50
2022-11-03T02:09:26.012Z,100514.69
2022-11-03T02:12:07.877Z,100515.53
2022-11-03T02:14:43.789Z,100511.16
2022-11-03T02:17:13.607Z,100522.56
2022-11-03T02:19:46.073Z,100512.03
2022-11-03T02:22:57.513Z,100508.56
2022-11-03T02:25:45.484Z,100503.19
2022-11-03T02:28:14.866Z,100503.19
2022-11-03T02:31:00.803Z,100492.66
2022-11-03T02:33:37.730Z,100500.53
2022-11-03T02:36:29.161Z,100489.09
2022-11-03T02:39:03.290Z,100485.59
2022-11-03T02:41:33.238Z,100466.31
2022-11-03T02:44:01.113Z,100462.72
2022-11-03T02:46:29.147Z,100465.38
2022-11-03T02:48:57.136Z,100463.69
2022-11-03T02:51:24.958Z,100461.09
2022-11-03T02:54:20.172Z,100457.53
2022-11-03T02:56:53.871Z,100452.25
2022-11-03T02:59:28.969Z,100458.47
2022-11-03T03:02:06.337Z,100452.41
2022-11-03T03:04:40.590Z,100452.31
2022-11-03T03:07:12.940Z,100447.06
2022-11-03T03:09:51.358Z,100450.59
2022-11-03T03:12:20.152Z,100443.44
2022-11-03T03:14:50.086Z,100446.91
2022-11-03T03:17:34.365Z,100444.34
2022-11-03T03:20:09.406Z,100432.97
2022-11-03T03:22:42.162Z,100430.34
2022-11-03T03:25:27.097Z,100419.91
2022-11-03T03:27:59.240Z,100419.00
2022-11-03T03:30:27.775Z,100412.78
2022-11-03T03:32:56.735Z,100415.25
2022-11-03T03:35:26.723Z,100412.59
2022-11-03T03:37:59.050Z,100411.78
2022-11-03T03:40:30.699Z,100409.94
2022-11-03T03:42:58.214Z,100409.94
2022-11-03T03:45:26.358Z,100405.66
2022-11-03T03:47:57.461Z,100402.13
2022-11-03T03:50:28.960Z,100398.66
2022-11-03T03:53:00.134Z,100400.50
2022-11-03T03:55:40.120Z,100398.72
2022-11-03T03:58:07.908Z,100397.88
2022-11-03T04:00:34.532Z,100390.00
2022-11-03T04:03:00.891Z,100390.00
2022-11-03T04:05:27.293Z,100378.59
2022-11-03T04:07:53.710Z,100386.50
2022-11-03T04:10:22.429Z,100382.09
2022-11-03T04:13:07.508Z,100384.75
2022-11-03T04:15:51.826Z,100380.34
2022-11-03T04:18:38.968Z,100381.28
2022-11-03T04:21:24.884Z,100382.13
2022-11-03T04:23:51.402Z,100371.66
2022-11-03T04:26:22.783Z,100377.88
2022-11-03T04:28:50.478Z,100373.50
2022-11-03T04:31:18.516Z,100373.41
2022-11-03T04:33:45.928Z,100370.75
2022-11-03T04:36:19.796Z,100374.22
2022-11-03T04:38:46.831Z,100370.81
2022-11-03T04:41:17.537Z,100371.66
2022-11-03T04:43:46.188Z,100370.84
2022-11-03T04:46:16.523Z,100373.50
2022-11-03T04:48:43.993Z,100365.63
2022-11-03T04:51:14.870Z,100368.25
2022-11-03T04:53:48.726Z,100360.28
2022-11-03T04:56:20.071Z,100363.03
2022-11-03T04:58:48.144Z,100363.03
2022-11-03T05:01:23.415Z,100363.88
2022-11-03T05:03:53.568Z,100353.38
2022-11-03T05:06:26.295Z,100345.44
2022-11-03T05:08:56.615Z,100342.00
2022-11-03T05:11:35.044Z,100336.69
2022-11-03T05:14:16.815Z,100325.34
2022-11-03T05:16:43.807Z,100327.09
2022-11-03T05:19:15.582Z,100325.34
2022-11-03T05:21:42.094Z,100323.59
2022-11-03T05:26:45.396Z,100320.13
2022-11-03T05:29:26.471Z,100307.78
2022-11-03T05:31:55.070Z,100301.75
2022-11-03T05:34:30.754Z,100290.72
2022-11-03T05:37:00.207Z,100284.75
2022-11-03T05:39:30.857Z,100284.78
2022-11-03T05:42:01.249Z,100283.88
2022-11-03T05:44:37.857Z,100271.59
2022-11-03T05:47:14.324Z,100268.97
2022-11-03T05:49:40.696Z,100268.91
2022-11-03T05:52:17.612Z,100275.97
2022-11-03T05:54:44.098Z,100271.47
2022-11-03T05:57:13.775Z,100271.38
2022-11-03T05:59:40.199Z,100271.59
2022-11-03T06:02:23.166Z,100275.97
2022-11-03T06:04:49.591Z,100272.47
2022-11-03T06:07:24.750Z,100275.69
2022-11-03T06:09:52.742Z,100274.78
2022-11-03T06:12:21.683Z,100271.41
2022-11-03T06:14:49.312Z,100261.75
2022-11-03T06:17:23.782Z,100257.31
2022-11-03T06:19:53.744Z,100252.13
2022-11-03T06:22:36.522Z,100246.00
2022-11-03T06:25:31.447Z,100246.00
2022-11-03T06:28:03.543Z,100238.09
2022-11-03T06:30:33.243Z,100230.97
2022-11-03T06:33:13.100Z,100236.22
2022-11-03T06:35:39.627Z,100238.06
2022-11-03T06:38:15.930Z,100241.34
2022-11-03T06:40:42.319Z,100239.50
2022-11-03T06:43:28.706Z,100249.06
2022-11-03T06:45:58.447Z,100244.50
2022-11-03T06:48:29.629Z,100228.91
2022-11-03T06:50:58.187Z,100235.00
2022-11-03T06:53:33.535Z,100235.84
2022-11-03T06:56:00.203Z,100226.25
2022-11-03T06:58:37.510Z,100221.69
2022-11-03T07:01:15.541Z,100208.63
2022-11-03T07:03:42.060Z,100195.38
2022-11-03T07:06:11.162Z,100188.53
2022-11-03T07:08:44.382Z,100195.34
2022-11-03T07:11:16.826Z,100191.56
2022-11-03T07:13:43.575Z,100195.81
2022-11-03T07:16:33.515Z,100196.53
2022-11-03T07:19:03.139Z,100190.47
2022-11-03T07:21:44.572Z,100181.69
2022-11-03T07:24:20.551Z,100177.34
2022-11-03T07:26:47.296Z,100185.13
2022-11-03T07:29:21.867Z,100183.06
2022-11-03T07:31:51.915Z,100182.09
2022-11-03T07:34:25.593Z,100176.56
2022-11-03T07:36:55.862Z,100165.03
2022-11-03T07:39:23.230Z,100167.94
2022-11-03T07:41:50.753Z,100162.34
2022-11-03T07:44:22.712Z,100161.19
2022-11-03T07:46:50.596Z,100150.84
2022-11-03T07:49:28.020Z,100142.75
2022-11-03T07:51:57.268Z,100144.72
2022-11-03T07:54:30.287Z,100149.22
2022-11-03T07:57:00.144Z,100135.03
2022-11-03T07:59:40.307Z,100122.63
2022-11-03T08:02:23.977Z,100115.75
2022-11-03T08:04:50.350Z,100103.47
2022-11-03T08:07:16.704Z,100098.41
2022-11-03T08:09:43.044Z,100094.09
2022-11-03T08:12:09.407Z,100091.03
2022-11-03T08:14:37.629Z,100096.84
2022-11-03T08:17:04.544Z,100100.22
2022-11-03T08:19:31.001Z,100103.38
2022-11-03T08:21:57.352Z,100105.00
2022-11-03T08:24:23.707Z,100102.63
2022-11-03T08:26:50.229Z,100101.63
2022-11-03T08:29:19.488Z,100094.16
2022-11-03T08:31:45.933Z,100098.78
2022-11-03T08:34:12.280Z,100101.47
2022-11-03T08:36:38.693Z,100106.63
2022-11-03T08:39:05.508Z,100115.44
2022-11-03T08:41:31.859Z,100105.94
2022-11-03T08:43:58.209Z,100101.44
2022-11-03T08:46:24.665Z,100102.22
2022-11-03T08:48:51.836Z,100103.19
2022-11-03T08:51:18.210Z,100108.47
2022-11-03T08:53:44.736Z,100111.81
2022-11-03T08:56:13.808Z,100104.91
2022-11-03T08:58:43.976Z,100095.31
2022-11-03T09:01:10.395Z,100092.28
2022-11-03T09:03:36.825Z,100083.50
2022-11-03T09:06:03.353Z,100075.00
2022-11-03T09:11:16.027Z,100068.88
2022-11-03T09:13:42.345Z,100062.41
2022-11-03T09:16:08.667Z,100059.28
2022-11-03T09:18:35.062Z,100057.00
2022-11-03T09:21:01.471Z,100043.44
2022-11-03T09:23:32.610Z,100051.28
2022-11-03T09:25:58.959Z,100042.88
2022-11-03T09:28:25.287Z,100020.75
2022-11-03T09:30:51.733Z,100033.31
2022-11-03T09:33:18.103Z,100027.22
2022-11-03T09:35:44.439Z,100019.34
2022-11-03T09:38:10.777Z,100021.94
2022-11-03T09:40:37.218Z,100017.59
2022-11-03T09:43:03.830Z,100007.81
2022-11-03T09:45:30.273Z,100003.03
2022-11-03T09:47:56.877Z,99995.03
2022-11-03T09:50:23.601Z,99975.56
2022-11-03T09:52:55.183Z,99958.41
2022-11-03T09:55:25.218Z,99944.81
2022-11-03T09:58:00.658Z,99931.50
2022-11-03T10:00:27.368Z,99917.81
2022-11-03T10:02:54.615Z,99926.88
2022-11-03T10:05:28.225Z,99917.25
2022-11-03T10:08:04.804Z,99916.16
2022-11-03T10:10:32.163Z,99922.19
2022-11-03T10:13:00.546Z,99915.09
2022-11-03T10:15:27.759Z,99919.34
2022-11-03T10:17:55.381Z,99911.00
2022-11-03T10:20:23.269Z,99928.03
2022-11-03T10:22:54.441Z,99916.91
2022-11-03T10:25:36.545Z,99920.44
2022-11-03T10:28:21.176Z,99917.03
2022-11-03T10:31:09.945Z,99915.63
2022-11-03T10:33:53.790Z,99900.22
2022-11-03T10:36:20.184Z,99882.94
2022-11-03T10:38:47.879Z,99879.81
2022-11-03T10:41:28.782Z,99873.38
2022-11-03T10:44:02.885Z,99872.31
2022-11-03T10:46:49.692Z,99862.56
2022-11-03T10:49:19.031Z,99859.28
2022-11-03T10:51:49.011Z,99844.25
2022-11-03T10:54:16.929Z,99842.09
2022-11-03T10:56:44.872Z,99827.88
2022-11-03T10:59:24.229Z,99818.97
2022-11-03T11:01:51.063Z,99819.84
2022-11-03T11:04:19.287Z,99828.72
2022-11-03T11:06:46.463Z,99814.38
2022-11-03T11:09:16.693Z,99801.38
2022-11-03T11:12:16.445Z,99792.56
2022-11-03T11:15:06.966Z,99791.94
2022-11-03T11:17:49.965Z,99789.72
2022-11-03T11:20:21.570Z,99792.16
2022-11-03T11:22:49.582Z,99802.78
2022-11-03T11:25:18.553Z,99796.34
2022-11-03T11:27:44.856Z,99792.25
2022-11-03T11:30:37.423Z,99799.34
2022-11-03T11:33:24.101Z,99791.88
2022-11-03T11:35:53.981Z,99780.13
2022-11-03T11:38:45.591Z,99773.00
2022-11-03T11:41:11.951Z,99765.66
2022-11-03T11:43:38.366Z,99763.09
2022-11-03T11:46:23.436Z,99754.13
2022-11-03T11:49:04.852Z,99752.88
2022-11-03T11:51:36.148Z,99746.94
2022-11-03T11:54:18.203Z,99761.91
2022-11-03T11:56:49.674Z,99751.88
2022-11-03T11:59:24.763Z,99744.88
2022-11-03T12:01:55.464Z,99716.38
2022-11-03T12:04:31.225Z,99717.91
2022-11-03T12:06:58.297Z,99688.13
2022-11-03T12:09:29.480Z,99695.78
2022-11-03T12:12:07.151Z,99684.38
2022-11-03T12:14:35.992Z,99686.25
2022-11-03T12:17:14.523Z,99676.31
2022-11-03T12:19:52.516Z,99655.28
2022-11-03T12:22:25.979Z,99648.03
2022-11-03T12:25:01.183Z,99658.31
2022-11-03T12:27:27.522Z,99657.03
2022-11-03T12:30:02.187Z,99656.16
2022-11-03T12:32:35.832Z,99652.91
2022-11-03T12:35:08.223Z,99649.47
2022-11-03T12:37:34.817Z,99647.03
2022-11-03T12:40:01.158Z,99636.22
2022-11-03T12:42:27.577Z,99628.97
2022-11-03T12:44:54.032Z,99624.34
2022-11-03T12:47:20.697Z,99620.03
2022-11-03T12:49:47.194Z,99606.06
2022-11-03T12:52:13.916Z,99604.19
2022-11-03T12:54:40.385Z,99603.00
2022-11-03T12:57:06.848Z,99591.03
2022-11-03T12:59:33.294Z,99573.41
2022-11-03T13:01:59.768Z,99563.09
2022-11-03T13:04:26.409Z,99571.47
2022-11-03T13:06:52.761Z,99569.59
2022-11-03T13:09:19.107Z,99567.34
2022-11-03T13:12:04.118Z,99544.50
2022-11-03T13:14:30.547Z,99543.69
2022-11-03T13:16:56.868Z,99538.69
2022-11-03T13:19:23.327Z,99534.75
2022-11-03T13:21:50.856Z,99514.00
2022-11-03T13:24:17.256Z,99513.31
2022-11-03T13:26:43.587Z,99526.63
2022-11-03T13:29:10.123Z,99507.53
2022-11-03T13:31:36.846Z,99510.78
2022-11-03T13:34:03.207Z,99501.63
2022-11-03T13:36:29.573Z,99488.66
2022-11-03T13:38:55.949Z,99473.84
2022-11-03T13:41:22.315Z,99462.03
2022-11-03T13:43:48.689Z,99472.09
2022-11-03T13:46:15.043Z,99460.78
2022-11-03T13:51:27.734Z,99445.84
2022-11-03T13:59:27.894Z,99443.66
2022-11-03T14:04:41.412Z,99433.66
2022-11-03T14:07:08.252Z,99421.03
2022-11-03T14:09:34.611Z,99411.66
2022-11-03T14:12:19.379Z,99394.81
2022-11-03T14:14:45.746Z,99410.81
2022-11-03T14:17:12.401Z,99411.06
2022-11-03T14:19:44.022Z,99401.88
2022-11-03T14:22:11.359Z,99403.47
2022-11-03T14:24:37.687Z,99393.25
2022-11-03T14:27:04.653Z,99403.13
2022-11-03T14:29:31.047Z,99399.94
2022-11-03T14:31:57.479Z,99391.78
2022-11-03T14:34:23.950Z,99398.38
2022-11-03T14:36:50.456Z,99404.81
2022-11-03T14:39:16.819Z,99402.44
2022-11-03T14:42:01.728Z,99394.06
2022-11-03T14:44:28.107Z,99396.31
2022-11-03T14:46:54.488Z,99394.44
2022-11-03T14:49:20.868Z,99392.53
2022-11-03T14:51:47.200Z,99393.91
2022-11-03T14:54:13.533Z,99386.84
2022-11-03T14:56:39.893Z,99388.47
2022-11-03T14:59:06.332Z,99388.88
2022-11-03T15:01:33.091Z,99390.75
2022-11-03T15:03:59.550Z,99382.91
2022-11-03T15:06:25.870Z,99382.44
2022-11-03T15:08:56.305Z,99377.03
2022-11-03T15:11:24.273Z,99356.81
2022-11-03T15:13:52.569Z,99365.75
2022-11-03T15:16:19.207Z,99352.75
2022-11-03T15:18:45.566Z,99349.59
2022-11-03T15:21:11.928Z,99342.78
2022-11-03T15:26:24.879Z,99342.06
2022-11-03T15:28:51.353Z,99338.84
2022-11-03T15:31:17.698Z,99324.06
2022-11-03T15:33:44.017Z,99325.44
2022-11-03T15:36:10.576Z,99321.22
2022-11-03T15:38:37.050Z,99320.41
2022-11-03T15:41:15.584Z,99307.56
2022-11-03T15:43:49.332Z,99309.72
2022-11-03T15:46:17.693Z,99311.28
2022-11-03T15:48:45.000Z,99301.94
2022-11-03T15:51:12.094Z,99295.91
2022-11-03T15:53:39.303Z,99284.22
2022-11-03T15:56:06.307Z,99287.81
2022-11-03T15:58:34.280Z,99279.75
2022-11-03T16:01:02.799Z,99266.44
2022-11-03T16:03:30.502Z,99256.03
2022-11-03T16:05:57.020Z,99246.31
2022-11-03T16:08:23.464Z,99229.56
2022-11-03T16:10:54.809Z,99224.56
2022-11-03T16:13:24.707Z,99234.41
2022-11-03T16:15:51.727Z,99229.50
2022-11-03T16:18:18.177Z,99239.38
2022-11-03T16:20:44.582Z,99235.19
2022-11-03T16:23:11.007Z,99227.91
2022-11-03T16:25:37.464Z,99221.44
2022-11-03T16:28:04.099Z,99222.91
2022-11-03T16:30:30.897Z,99221.25
2022-11-03T16:32:57.273Z,99230.78
2022-11-03T16:35:23.713Z,99242.25
2022-11-03T16:37:50.072Z,99234.47
2022-11-03T16:40:19.763Z,99223.53
2022-11-03T16:42:47.107Z,99223.06
2022-11-03T16:45:22.067Z,99202.78
2022-11-03T16:47:50.246Z,99185.09
2022-11-03T16:50:17.147Z,99181.06
2022-11-03T16:52:44.349Z,99181.22
2022-11-03T16:55:11.842Z,99175.25
2022-11-03T16:57:38.960Z,99168.44
2022-11-03T17:00:08.679Z,99162.56
2022-11-03T17:02:35.078Z,99149.19
2022-11-03T17:05:01.472Z,99145.66
2022-11-03T17:07:27.806Z,99134.09
2022-11-03T17:09:54.260Z,99122.19
2022-11-03T17:12:20.653Z,99099.69
2022-11-03T17:14:49.055Z,99095.97
2022-11-03T17:17:17.761Z,99094.19
2022-11-03T17:19:44.098Z,99089.94
2022-11-03T17:22:10.425Z,99090.09
2022-11-03T17:24:37.012Z,99089.00
2022-11-03T17:27:07.059Z,99083.03
2022-11-03T17:29:40.511Z,99096.25
2022-11-03T17:32:29.866Z,99079.34
2022-11-03T17:34:58.297Z,99071.38
2022-11-03T17:37:25.838Z,99065.81
2022-11-03T17:39:52.546Z,99074.16
2022-11-03T17:42:21.491Z,99060.84
2022-11-03T17:44:50.375Z,99069.41
2022-11-03T17:47:18.029Z,99056.56
2022-11-03T17:49:45.372Z,99051.66
2022-11-03T17:52:28.352Z,99048.59
2022-11-03T17:54:57.859Z,99048.50
2022-11-03T17:57:25.617Z,99042.81
2022-11-03T17:59:54.960Z,99043.00
2022-11-03T18:02:26.411Z,99039.94
2022-11-03T18:04:59.217Z,99039.22
2022-11-03T18:07:27.381Z,99034.66
2022-11-03T18:09:54.397Z,99029.41
2022-11-03T18:12:43.510Z,99031.47
2022-11-03T18:15:20.633Z,99028.97
2022-11-03T18:17:47.364Z,99030.69
2022-11-03T18:20:21.647Z,99036.78
2022-11-03T18:22:48.478Z,99039.84
2022-11-03T18:25:20.313Z,99051.91
2022-11-03T18:27:47.596Z,99072.28
2022-11-03T18:30:18.512Z,99076.97
2022-11-03T18:32:45.690Z,99086.75
2022-11-03T18:35:19.043Z,99089.94
2022-11-03T18:37:45.456Z,99085.31
2022-11-03T18:40:13.364Z,99084.31
2022-11-03T18:42:39.833Z,99084.53
2022-11-03T18:45:12.128Z,99079.78
2022-11-03T18:47:38.802Z,99073.25
2022-11-03T18:50:07.055Z,99066.59
2022-11-03T18:52:40.774Z,99063.34
2022-11-03T18:55:11.161Z,99056.91
2022-11-03T18:57:38.209Z,99046.34
2022-11-03T19:00:22.972Z,99037.13
2022-11-03T19:02:50.366Z,99023.19
2022-11-03T19:05:17.839Z,99030.44
2022-11-03T19:07:47.675Z,99035.41
2022-11-03T19:10:19.332Z,99019.53
2022-11-03T19:12:46.945Z,99005.69
2022-11-03T19:15:19.566Z,98998.47
2022-11-03T19:17:48.260Z,98989.97
2022-11-03T19:20:16.101Z,98986.28
2022-11-03T19:22:42.486Z,98979.66
2022-11-03T19:25:09.156Z,98974.59
2022-11-03T19:27:38.499Z,98974.94
2022-11-03T19:30:05.610Z,98976.22
2022-11-03T19:32:40.058Z,98964.78
2022-11-03T19:35:14.444Z,98967.38
2022-11-03T19:37:41.141Z,98961.44
2022-11-03T19:40:14.828Z,98951.84
2022-11-03T19:42:41.414Z,98953.38
2022-11-03T19:45:13.410Z,98935.81
2022-11-03T19:47:57.583Z,98928.75
2022-11-03T19:50:31.791Z,98919.53
2022-11-03T19:53:03.546Z,98915.66
2022-11-03T19:55:40.402Z,98909.56
2022-11-03T19:58:15.517Z,98900.63
2022-11-03T20:00:44.054Z,98902.09
2022-11-03T20:03:10.488Z,98903.88
2022-11-03T20:05:37.734Z,98903.56
2022-11-03T20:08:07.678Z,98901.06
2022-11-03T20:10:35.988Z,98898.50
2022-11-03T20:13:02.995Z,98885.41
2022-11-03T20:15:29.405Z,98885.94
2022-11-03T20:17:55.782Z,98877.69
2022-11-03T20:20:26.523Z,98874.16
2022-11-03T20:22:57.347Z,98866.00
2022-11-03T20:25:27.189Z,98860.19
2022-11-03T20:27:56.069Z,98862.22
2022-11-03T20:30:24.821Z,98862.56
2022-11-03T20:32:52.177Z,98866.09
2022-11-03T20:35:24.984Z,98875.63
2022-11-03T20:37:56.237Z,98876.41
2022-11-03T20:40:25.885Z,98870.38
2022-11-03T20:42:59.169Z,98864.09
2022-11-03T20:45:29.447Z,98871.59
2022-11-03T20:47:56.227Z,98875.47
2022-11-03T20:50:23.386Z,98881.56
2022-11-03T20:52:49.967Z,98879.72
2022-11-03T20:55:21.116Z,98877.53
2022-11-03T20:57:48.794Z,98882.56
2022-11-03T21:00:24.331Z,98874.94
2022-11-03T21:02:51.608Z,98884.50
2022-11-03T21:05:23.978Z,98879.38
2022-11-03T21:07:51.599Z,98901.34
2022-11-03T21:10:20.884Z,98907.78
2022-11-03T21:12:47.876Z,98892.50
2022-11-03T21:15:34.135Z,98888.69
2022-11-03T21:18:18.957Z,98891.47
2022-11-03T21:20:46.115Z,98890.78
2022-11-03T21:23:31.823Z,98898.28
2022-11-03T21:25:58.227Z,98912.97
2022-11-03T21:28:24.641Z,98917.94
2022-11-03T21:30:53.212Z,98909.63
2022-11-03T21:33:20.542Z,98926.88
2022-11-03T21:35:47.999Z,98936.34
2022-11-03T21:38:15.838Z,98944.91
2022-11-03T21:40:56.291Z,98949.84
2022-11-03T21:43:41.171Z,98966.34
2022-11-03T21:46:09.715Z,98970.84
2022-11-03T21:48:57.770Z,98975.75
2022-11-03T21:51:24.711Z,98966.66
2022-11-03T21:53:51.313Z,98969.63
2022-11-03T21:56:17.796Z,98976.09
2022-11-03T21:58:44.642Z,98985.25
2022-11-03T22:01:11.092Z,98991.59
2022-11-03T22:03:38.838Z,98987.81
2022-11-03T22:06:09.784Z,98991.06
2022-11-03T22:08:37.393Z,98983.78
2022-11-03T22:11:22.332Z,98972.44
2022-11-03T22:13:55.379Z,98970.06
2022-11-03T22:16:38.086Z,98965.16
2022-11-03T22:19:34.546Z,98964.50
2022-11-03T22:22:21.347Z,98965.69
2022-11-03T22:25:06.615Z,98970.41
2022-11-03T22:27:34.180Z,98986.84
2022-11-03T22:30:19.715Z,99002.47
2022-11-03T22:32:51.377Z,99001.97
2022-11-03T22:35:36.183Z,99004.44
2022-11-03T22:38:03.599Z,99015.63
2022-11-03T22:41:08.611Z,99028.34
2022-11-03T22:43:53.303Z,99053.03
2022-11-03T22:46:20.387Z,99040.41
2022-11-03T22:48:46.744Z,99006.09
2022-11-03T22:51:15.574Z,98990.53
2022-11-03T22:54:01.791Z,99016.25
2022-11-03T22:56:30.173Z,99004.88
2022-11-03T22:58:56.596Z,99012.94
2022-11-03T23:01:26.446Z,99011.16
2022-11-03T23:03:53.843Z,99015.28
2022-11-03T23:06:23.213Z,99037.16
2022-11-03T23:08:50.986Z,99049.97
2022-11-03T23:11:26.393Z,99058.91
2022-11-03T23:13:55.249Z,99077.47
2022-11-03T23:16:24.689Z,99089.09
2022-11-03T23:19:10.161Z,99080.41
2022-11-03T23:21:37.226Z,99079.34
2022-11-03T23:24:22.794Z,99078.75
2022-11-03T23:26:49.908Z,99077.03
2022-11-03T23:29:16.761Z,99073.69
2022-11-03T23:31:44.609Z,99070.69
2022-11-03T23:34:12.653Z,99070.50
2022-11-03T23:36:39.068Z,99069.94
2022-11-03T23:39:06.267Z,99073.78
2022-11-03T23:41:33.234Z,99077.31
2022-11-03T23:43:59.677Z,99080.34
2022-11-03T23:46:47.031Z,99084.94
2022-11-03T23:49:14.267Z,99094.25
2022-11-03T23:51:41.992Z,99094.63
2022-11-03T23:54:10.441Z,99105.78
2022-11-03T23:56:57.881Z,99097.88
2022-11-03T23:59:24.629Z,99095.09
